Weather History for Salida, CO

Change the Weather History Date:

Monday, March 18, 2013

  Actual Average (KGUC) Record (KGUC)
Temperature  
Mean Temperature 38 °F -  
Max Temperature 44 °F 45 °F 64 °F (2007)
Min Temperature 31 °F 18 °F 3 °F (2008)
Degree Days  
Heating Degree Days 28    
Moisture  
Dew Point 8 °F    
Average Humidity 31    
Maximum Humidity 58    
Minimum Humidity 21    
Precipitation  
Precipitation 0.00 in - - ()
Sea Level Pressure  
Sea Level Pressure 30.01 in    
Wind  
Wind Speed 14 mph (West)    
Max Wind Speed 24 mph    
Max Gust Speed 41 mph    
Visibility 10 miles    
Events      
Averages and records for this station are not official NWS values.
T = Trace of Precipitation, MM = Missing Value Source: NWS Daily Summary

Daily Weather History Graph

Daily Weather History Graph

Search for Another Location

Airport:

Trip Planner

Search our weather history database for the weather conditions in past years. The results will help you decide how hot, cold, wet, or windy it might be!

Date:

Astronomy

Mar. 18, 2013 Rise Set
Actual Time 7:10 AM MDT 7:14 PM MDT
Civil Twilight 6:43 AM MDT 7:40 PM MDT
Nautical Twilight 6:13 AM MDT 8:11 PM MDT
Astronomical Twilight 5:41 AM MDT 8:43 PM MDT
Moon 11:16 AM MDT (3/18) 1:12 AM MDT (3/18)
Length of Visible Light 12h 57m
Length of Day
12h 04m
Waxing Crescent, 41% of the Moon is Illuminated
Mar 18
Waxing Crescent
Mar 19
First Quarter
Mar 27
Full
Apr 2
Last Quarter
Apr 10
New

Hourly Weather History & Observations

Time (MDT) Temp. Windchill Dew Point Humidity Pressure Visibility Wind Dir Wind Speed Gust Speed Precip Events Conditions
12:15 AM 36.9 °F 34.3 °F 12.6 °F 37% 29.94 in 10.0 mi West 3.5 mph - N/A   Overcast
12:35 AM 37.6 °F 28.4 °F 5.9 °F 27% 29.94 in 10.0 mi WSW 16.1 mph 28.8 mph N/A   Overcast
12:55 AM 37.4 °F 28.5 °F 3.2 °F 24% 29.93 in 10.0 mi West 15.0 mph 21.9 mph N/A   Scattered Clouds
1:15 AM 36.7 °F 28.0 °F 3.4 °F 25% 29.94 in 10.0 mi West 13.8 mph 25.3 mph N/A   Clear
1:35 AM 35.8 °F 28.3 °F 3.0 °F 25% 29.95 in 10.0 mi West 10.4 mph - N/A   Clear
1:55 AM 34.7 °F 26.9 °F 1.8 °F 25% 29.95 in 10.0 mi West 10.4 mph - N/A   Clear
2:15 AM 34.3 °F 25.9 °F 1.4 °F 25% 29.95 in 10.0 mi WSW 11.5 mph 17.3 mph N/A   Clear
2:35 AM 33.8 °F 25.3 °F 3.9 °F 28% 29.96 in 10.0 mi WSW 11.5 mph 17.3 mph N/A   Clear
2:55 AM 33.3 °F 24.1 °F 4.6 °F 30% 29.96 in 10.0 mi WSW 12.7 mph 17.3 mph N/A   Clear
3:15 AM 33.1 °F 25.5 °F 3.4 °F 29% 29.96 in 10.0 mi WSW 9.2 mph - N/A   Clear
3:35 AM 32.4 °F 24.0 °F 2.7 °F 28% 29.97 in 10.0 mi WSW 10.4 mph 16.1 mph N/A   Clear
3:55 AM 32.4 °F 23.0 °F 2.1 °F 28% 29.96 in 10.0 mi West 12.7 mph 18.4 mph N/A   Clear
4:15 AM 32.0 °F 23.0 °F 1.9 °F 28% 29.96 in 10.0 mi WSW 11.5 mph 16.1 mph N/A   Clear
4:35 AM 32.2 °F 23.2 °F 2.1 °F 28% 29.95 in 10.0 mi West 11.5 mph - N/A   Clear
4:55 AM 32.9 °F 23.7 °F 2.5 °F 28% 29.96 in 10.0 mi West 12.7 mph - N/A   Scattered Clouds
5:15 AM 33.3 °F 23.2 °F 3.2 °F 28% 29.96 in 10.0 mi WSW 15.0 mph 21.9 mph N/A   Scattered Clouds
5:35 AM 32.9 °F 22.8 °F 5.7 °F 32% 29.96 in 10.0 mi WSW 15.0 mph 23.0 mph N/A   Mostly Cloudy
5:55 AM 32.9 °F 22.4 °F 6.1 °F 32% 29.97 in 10.0 mi WSW 16.1 mph 21.9 mph N/A   Overcast
6:15 AM 32.5 °F 22.7 °F 7.2 °F 35% 29.97 in 10.0 mi West 13.8 mph 25.3 mph N/A   Overcast
6:35 AM 32.0 °F 20.1 °F 8.8 °F 38% 29.98 in 10.0 mi West 19.6 mph 24.2 mph N/A   Overcast
6:55 AM 32.0 °F 22.1 °F 10.4 °F 41% 29.98 in 10.0 mi West 13.8 mph 19.6 mph N/A   Overcast
7:15 AM 31.6 °F 21.6 °F 11.7 °F 44% 29.99 in 10.0 mi West 13.8 mph 20.7 mph N/A   Overcast
7:35 AM 31.6 °F 22.6 °F 12.4 °F 45% 30.00 in 10.0 mi WSW 11.5 mph 18.4 mph N/A   Overcast
7:55 AM 31.3 °F 20.3 °F 14.0 °F 49% 30.01 in 10.0 mi WSW 16.1 mph 20.7 mph N/A   Overcast
8:15 AM 31.1 °F 20.1 °F 15.8 °F 53% 30.02 in 10.0 mi SW 16.1 mph 21.9 mph N/A   Overcast
8:35 AM 31.1 °F 21.4 °F 17.1 °F 56% 30.03 in 10.0 mi SW 12.7 mph 17.3 mph N/A   Overcast
8:55 AM 31.1 °F 21.4 °F 17.8 °F 58% 30.04 in 10.0 mi SW 12.7 mph - N/A   Overcast
9:15 AM 31.5 °F 21.4 °F 18.0 °F 57% 30.04 in 10.0 mi SW 13.8 mph - N/A   Overcast
9:35 AM 32.0 °F 22.5 °F 18.7 °F 58% 30.05 in 10.0 mi SW 12.7 mph 18.4 mph N/A   Overcast
9:55 AM 33.6 °F 23.7 °F 18.3 °F 54% 30.05 in 10.0 mi SW 15.0 mph 20.7 mph N/A   Mostly Cloudy
10:15 AM 35.1 °F 26.9 °F 17.8 °F 49% 30.05 in 10.0 mi WSW 11.5 mph - N/A   Scattered Clouds
10:35 AM 36.7 °F 26.9 °F 15.4 °F 42% 30.06 in 10.0 mi SW 17.3 mph 23.0 mph N/A   Mostly Cloudy
10:55 AM 37.6 °F 28.1 °F 15.3 °F 40% 30.07 in 10.0 mi WSW 17.3 mph 24.2 mph N/A   Overcast
11:15 AM 38.3 °F 31.9 °F 13.5 °F 36% 30.06 in 10.0 mi WSW 9.2 mph 20.7 mph N/A   Overcast
11:35 AM 39.9 °F 30.8 °F 10.6 °F 30% 30.05 in 10.0 mi WSW 18.4 mph 32.2 mph N/A   Overcast
11:55 AM 39.9 °F 29.5 °F 9.5 °F 29% 30.05 in 10.0 mi West 24.2 mph 33.4 mph N/A   Mostly Cloudy
12:15 PM 40.3 °F 30.7 °F 10.6 °F 30% 30.05 in 10.0 mi West 20.7 mph 32.2 mph N/A   Mostly Cloudy
12:35 PM 39.9 °F 29.7 °F 9.9 °F 29% 30.05 in 10.0 mi West 23.0 mph 33.4 mph N/A   Mostly Cloudy
12:55 PM 42.1 °F 33.1 °F 12.7 °F 30% 30.04 in 10.0 mi SW 20.7 mph 31.1 mph N/A   Mostly Cloudy
1:15 PM 42.3 °F 32.6 °F 11.7 °F 29% 30.05 in 10.0 mi WSW 24.2 mph 31.1 mph N/A   Mostly Cloudy
1:35 PM 41.5 °F 32.4 °F 11.1 °F 29% 30.05 in 10.0 mi West 20.7 mph 34.5 mph N/A   Mostly Cloudy
1:55 PM 41.4 °F 32.4 °F 9.0 °F 26% 30.03 in 10.0 mi West 19.6 mph 31.1 mph N/A   Overcast
2:15 PM 42.1 °F 33.3 °F 10.0 °F 27% 30.03 in 10.0 mi WSW 19.6 mph 29.9 mph N/A   Overcast
2:35 PM 41.9 °F 34.0 °F 8.2 °F 25% 30.02 in 10.0 mi West 16.1 mph 28.8 mph N/A   Mostly Cloudy
2:55 PM 43.3 °F 34.7 °F 6.3 °F 22% 30.01 in 10.0 mi West 20.7 mph 41.4 mph N/A   Mostly Cloudy
3:15 PM 43.7 °F 35.2 °F 8.4 °F 24% 30.01 in 10.0 mi West 20.7 mph 33.4 mph N/A   Mostly Cloudy
3:35 PM 42.8 °F 34.0 °F 8.4 °F 24% 30.01 in 10.0 mi West 20.7 mph 35.7 mph N/A   Scattered Clouds
3:55 PM 43.7 °F 35.2 °F 8.1 °F 23% 30.00 in 10.0 mi West 20.7 mph 33.4 mph N/A   Clear
4:15 PM 44.1 °F 35.0 °F 5.9 °F 21% 29.99 in 10.0 mi WNW 24.2 mph 31.1 mph N/A   Clear
4:35 PM 44.1 °F 35.7 °F 7.9 °F 23% 30.01 in 10.0 mi West 20.7 mph 34.5 mph N/A   Clear
4:55 PM 43.9 °F 36.8 °F 8.8 °F 24% 30.01 in 10.0 mi West 15.0 mph 31.1 mph N/A   Clear
5:15 PM 43.9 °F 35.7 °F 6.3 °F 21% 30.01 in 10.0 mi West 19.6 mph 35.7 mph N/A   Scattered Clouds
5:35 PM 43.7 °F 35.0 °F 7.9 °F 23% 30.01 in 10.0 mi West 21.9 mph 28.8 mph N/A   Clear
5:55 PM 43.7 °F 35.7 °F 6.8 °F 22% 30.01 in 10.0 mi West 18.4 mph 27.6 mph N/A   Clear
6:15 PM 42.3 °F 34.1 °F 8.1 °F 25% 30.02 in 10.0 mi West 17.3 mph 32.2 mph N/A   Clear
6:35 PM 41.9 °F 33.4 °F 6.1 °F 23% 30.01 in 10.0 mi West 18.4 mph 25.3 mph N/A   Clear
6:55 PM 41.4 °F 33.0 °F 6.6 °F 24% 30.02 in 10.0 mi West 17.3 mph 28.8 mph N/A   Clear
7:15 PM 41.0 °F 33.5 °F 6.4 °F 24% 30.02 in 10.0 mi West 13.8 mph 25.3 mph N/A   Clear
7:35 PM 40.6 °F 32.3 °F 6.6 °F 25% 30.02 in 10.0 mi West 16.1 mph 26.5 mph N/A   Clear
7:55 PM 40.3 °F 33.4 °F 6.1 °F 24% 30.02 in 10.0 mi West 11.5 mph 21.9 mph N/A   Clear
8:15 PM 40.1 °F 34.7 °F 5.5 °F 24% 30.03 in 10.0 mi West 8.1 mph 20.7 mph N/A   Clear
8:35 PM 39.4 °F 33.2 °F 4.6 °F 24% 30.04 in 10.0 mi West 9.2 mph - N/A   Clear
8:55 PM 38.8 °F 34.6 °F 4.6 °F 24% 30.04 in 10.0 mi West 5.8 mph - N/A   Clear
9:15 PM 38.3 °F 33.2 °F 4.6 °F 25% 30.05 in 10.0 mi WNW 6.9 mph - N/A   Clear
9:55 PM 38.3 °F 33.9 °F 4.8 °F 25% 30.06 in 10.0 mi West 5.8 mph - N/A   Clear
10:15 PM 38.7 °F 30.5 °F 4.5 °F 24% 30.05 in 10.0 mi West 13.8 mph 19.6 mph N/A   Clear
10:35 PM 38.5 °F 31.1 °F 4.8 °F 25% 30.05 in 10.0 mi West 11.5 mph 16.1 mph N/A   Clear
10:55 PM 38.5 °F 31.1 °F 5.0 °F 25% 30.05 in 10.0 mi West 11.5 mph 18.4 mph N/A   Clear
11:15 PM 38.7 °F 30.5 °F 4.8 °F 24% 30.05 in 10.0 mi West 13.8 mph 18.4 mph N/A   Clear
11:35 PM 39.6 °F 31.0 °F 4.5 °F 23% 30.05 in 10.0 mi West 16.1 mph 24.2 mph N/A   Clear
11:55 PM 39.7 °F 29.7 °F 4.1 °F 23% 30.04 in 10.0 mi West 21.9 mph 29.9 mph N/A   Clear